Terminal Aerodrome Forecast
Issued by NWS Cleveland, OH

Home | Current Version | Previous Version | Text Only | Print | Product List | Glossary Off
Versions: 1 2 3 4 5 6 7 8 9 10 11 12 13 14

000
FTUS41 KCLE 250756 AAB
TAFERI
TAF AMD
KERI 250756Z 2508/2606 35010KT P6SM SCT018 OVC028
      TEMPO 2509/2513 BKN018
     FM251900 01010KT P6SM BKN035
     FM252100 01010KT P6SM SCT035
     FM260100 06006KT P6SM FEW040
     FM260500 12006KT P6SM FEW250=

USA.gov is the U.S. government's official web portal to all federal, state and local government web resources and services.